createdAt,value
2019-06-11T00:00:22.623Z,15.29
2019-06-11T00:01:23.058Z,15.26
2019-06-11T00:02:32.630Z,15.28
2019-06-11T00:03:22.577Z,15.34
2019-06-11T00:04:22.895Z,15.19
2019-06-11T00:05:23.445Z,15.18
2019-06-11T00:06:22.844Z,15.21
2019-06-11T00:07:22.515Z,15.25
2019-06-11T00:08:22.676Z,15.18
2019-06-11T00:09:22.479Z,15.21
2019-06-11T00:10:23.100Z,15.21
2019-06-11T00:11:23.190Z,15.19
2019-06-11T00:12:24.077Z,15.14
2019-06-11T00:13:22.566Z,15.26
2019-06-11T00:14:23.089Z,15.22
2019-06-11T00:15:22.715Z,15.24
2019-06-11T00:16:23.265Z,15.26
2019-06-11T00:17:22.433Z,15.18
2019-06-11T00:18:22.805Z,15.28
2019-06-11T00:19:22.971Z,15.25
2019-06-11T00:20:22.966Z,15.22
2019-06-11T00:21:22.582Z,15.25
2019-06-11T00:22:22.812Z,15.21
2019-06-11T00:23:22.406Z,15.18
2019-06-11T00:24:22.576Z,15.21
2019-06-11T00:25:23.290Z,15.19
2019-06-11T00:26:22.652Z,15.18
2019-06-11T00:27:22.494Z,15.28
2019-06-11T00:28:22.394Z,15.13
2019-06-11T00:29:22.838Z,15.19
2019-06-11T00:30:23.026Z,15.14
2019-06-11T00:31:22.880Z,15.18
2019-06-11T00:32:30.706Z,15.11
2019-06-11T00:33:22.589Z,15.04
2019-06-11T00:34:22.879Z,15.10
2019-06-11T00:35:23.374Z,15.07
2019-06-11T00:36:22.672Z,15.06
2019-06-11T00:37:22.081Z,15.11
2019-06-11T00:38:23.096Z,15.03
2019-06-11T00:39:22.397Z,15.11
2019-06-11T00:40:23.295Z,15.13
2019-06-11T00:41:22.733Z,15.09
2019-06-11T00:42:22.167Z,15.07
2019-06-11T00:43:23.126Z,15.04
2019-06-11T00:44:23.250Z,15.10
2019-06-11T00:45:23.178Z,15.03
2019-06-11T00:46:23.473Z,15.10
2019-06-11T00:47:22.595Z,15.10
2019-06-11T00:48:22.897Z,15.07
2019-06-11T00:49:23.321Z,15.01
2019-06-11T00:50:22.913Z,14.96
2019-06-11T00:51:23.915Z,15.03
2019-06-11T00:52:22.572Z,15.04
2019-06-11T00:53:23.584Z,14.99
2019-06-11T00:54:23.139Z,15.07
2019-06-11T00:55:23.282Z,15.09
2019-06-11T00:56:23.310Z,15.03
2019-06-11T00:57:22.629Z,15.04
2019-06-11T00:58:22.547Z,14.95
2019-06-11T00:59:23.261Z,14.95
2019-06-11T01:00:24.799Z,15.03
2019-06-11T01:01:22.555Z,14.96
2019-06-11T01:02:23.179Z,14.99
2019-06-11T01:03:22.759Z,14.99
2019-06-11T01:04:23.238Z,15.01
2019-06-11T01:05:22.640Z,14.86
2019-06-11T01:06:23.219Z,14.82
2019-06-11T01:07:22.800Z,14.77
2019-06-11T01:08:22.684Z,14.82
2019-06-11T01:09:23.379Z,14.82
2019-06-11T01:10:22.780Z,14.70
2019-06-11T01:11:22.554Z,14.72
2019-06-11T01:12:23.192Z,14.73
2019-06-11T01:13:22.890Z,14.68
2019-06-11T01:14:23.810Z,14.69
2019-06-11T01:15:23.349Z,14.72
2019-06-11T01:16:22.958Z,14.63
2019-06-11T01:17:23.621Z,14.68
2019-06-11T01:18:23.824Z,14.72
2019-06-11T01:19:23.287Z,14.69
2019-06-11T01:20:23.403Z,14.77
2019-06-11T01:21:23.312Z,14.68
2019-06-11T01:22:22.879Z,14.63
2019-06-11T01:23:22.431Z,14.60
2019-06-11T01:24:23.014Z,14.60
2019-06-11T01:25:23.490Z,14.54
2019-06-11T01:26:23.688Z,14.60
2019-06-11T01:27:22.157Z,14.48
2019-06-11T01:28:23.466Z,14.57
2019-06-11T01:29:22.849Z,14.51
2019-06-11T01:30:23.279Z,14.50
2019-06-11T01:31:22.854Z,14.50
2019-06-11T01:32:22.578Z,14.44
2019-06-11T01:33:23.745Z,14.55
2019-06-11T01:34:22.387Z,14.54
2019-06-11T01:35:23.281Z,14.37
2019-06-11T01:36:23.396Z,14.51
2019-06-11T01:37:22.791Z,14.47
2019-06-11T01:38:23.058Z,14.50
2019-06-11T01:39:22.288Z,14.44
2019-06-11T01:40:22.964Z,14.48
2019-06-11T01:41:22.505Z,14.45
2019-06-11T01:42:22.131Z,14.43
2019-06-11T01:43:23.050Z,14.45
2019-06-11T01:44:22.916Z,14.45
2019-06-11T01:45:23.036Z,14.45
2019-06-11T01:46:22.501Z,14.45
2019-06-11T01:47:22.086Z,14.50
2019-06-11T01:48:22.889Z,14.47
2019-06-11T01:49:22.347Z,14.39
2019-06-11T01:50:23.174Z,14.40
2019-06-11T01:51:23.414Z,14.50
2019-06-11T01:52:22.058Z,14.39
2019-06-11T01:53:23.009Z,14.40
2019-06-11T01:54:22.443Z,14.39
2019-06-11T01:55:22.943Z,14.29
2019-06-11T01:56:22.592Z,14.23
2019-06-11T01:57:22.714Z,14.32
2019-06-11T01:58:23.111Z,14.18
2019-06-11T01:59:23.021Z,14.29
2019-06-11T02:00:26.433Z,14.29
2019-06-11T02:01:25.995Z,14.12
2019-06-11T02:02:22.704Z,14.29
2019-06-11T02:03:36.123Z,14.14
2019-06-11T02:04:22.755Z,14.12
2019-06-11T02:05:22.269Z,14.18
2019-06-11T02:06:23.135Z,14.19
2019-06-11T02:07:22.497Z,14.17
2019-06-11T02:08:23.249Z,14.14
2019-06-11T02:09:22.475Z,14.08
2019-06-11T02:10:22.465Z,14.18
2019-06-11T02:11:23.199Z,14.17
2019-06-11T02:12:22.350Z,14.11
2019-06-11T02:13:23.122Z,14.12
2019-06-11T02:14:22.572Z,14.05
2019-06-11T02:15:20.423Z,14.05
2019-06-11T02:16:21.797Z,14.07
2019-06-11T02:17:22.420Z,13.94
2019-06-11T02:18:22.854Z,13.92
2019-06-11T02:19:20.359Z,13.89
2019-06-11T02:20:22.410Z,13.99
2019-06-11T02:21:20.324Z,13.84
2019-06-11T02:22:22.780Z,13.89
2019-06-11T02:23:22.198Z,13.74
2019-06-11T02:24:20.276Z,13.75
2019-06-11T02:25:22.431Z,13.79
2019-06-11T02:26:22.627Z,13.77
2019-06-11T02:27:20.223Z,13.74
2019-06-11T02:28:22.635Z,13.69
2019-06-11T02:29:22.130Z,13.77
2019-06-11T02:30:38.822Z,13.77
2019-06-11T02:31:28.205Z,13.72
2019-06-11T02:32:25.205Z,13.72
2019-06-11T02:33:43.826Z,13.81
2019-06-11T02:35:39.602Z,13.60
2019-06-11T02:36:29.293Z,13.69
2019-06-11T02:37:24.530Z,13.69
2019-06-11T02:38:27.356Z,13.61
2019-06-11T02:39:24.919Z,13.61
2019-06-11T02:40:24.189Z,13.64
2019-06-11T02:41:26.754Z,13.54
2019-06-11T02:42:26.762Z,13.63
2019-06-11T02:43:27.234Z,13.49
2019-06-11T02:44:27.835Z,13.52
2019-06-11T02:45:25.155Z,13.56
2019-06-11T02:46:28.780Z,13.54
2019-06-11T02:47:28.479Z,13.49
2019-06-11T02:48:27.584Z,13.60
2019-06-11T02:49:26.911Z,13.49
2019-06-11T02:50:28.215Z,13.53
2019-06-11T02:51:27.452Z,13.53
2019-06-11T02:52:27.204Z,13.53
2019-06-11T02:53:27.528Z,13.45
2019-06-11T02:54:28.064Z,13.45
2019-06-11T02:55:28.493Z,13.50
2019-06-11T02:56:27.040Z,13.42
2019-06-11T02:57:24.314Z,13.38
2019-06-11T02:58:25.917Z,13.33
2019-06-11T02:59:25.638Z,13.33
2019-06-11T03:00:34.825Z,13.38
2019-06-11T03:01:25.272Z,13.38
2019-06-11T03:02:26.169Z,13.36
2019-06-11T03:03:27.640Z,13.35
2019-06-11T03:04:40.172Z,13.31
2019-06-11T03:05:31.514Z,13.36
2019-06-11T03:06:30.861Z,13.22
2019-06-11T03:07:27.728Z,13.23
2019-06-11T03:08:28.341Z,13.16
2019-06-11T03:09:28.707Z,13.16
2019-06-11T03:10:29.250Z,13.20
2019-06-11T03:11:30.477Z,13.22
2019-06-11T03:12:22.752Z,13.20
2019-06-11T03:13:27.644Z,13.15
2019-06-11T03:14:28.883Z,13.23
2019-06-11T03:15:28.129Z,13.22
2019-06-11T03:16:31.658Z,13.16
2019-06-11T03:17:26.275Z,13.13
2019-06-11T03:18:29.134Z,13.16
2019-06-11T03:19:26.146Z,13.20
2019-06-11T03:20:23.030Z,13.19
2019-06-11T03:21:29.960Z,13.15
2019-06-11T03:22:24.266Z,13.18
2019-06-11T03:23:25.224Z,13.12
2019-06-11T03:24:26.029Z,13.01
2019-06-11T03:25:25.933Z,13.13
2019-06-11T03:26:22.987Z,13.04
2019-06-11T03:27:24.938Z,13.07
2019-06-11T03:28:25.430Z,13.00
2019-06-11T03:29:25.367Z,13.10
2019-06-11T03:31:00.055Z,13.18
2019-06-11T03:31:52.548Z,13.05
2019-06-11T03:33:18.385Z,12.98
2019-06-11T03:33:53.350Z,13.04
2019-06-11T03:35:33.745Z,13.07
2019-06-11T03:37:44.619Z,13.05
2019-06-11T03:38:37.846Z,13.01
2019-06-11T03:39:37.946Z,13.00
2019-06-11T03:40:25.230Z,13.04
2019-06-11T03:41:25.583Z,13.08
2019-06-11T03:42:22.722Z,13.04
2019-06-11T03:43:22.201Z,13.04
2019-06-11T03:44:22.156Z,13.10
2019-06-11T03:45:27.339Z,13.07
2019-06-11T03:46:27.121Z,13.00
2019-06-11T03:47:25.136Z,13.16
2019-06-11T03:48:24.549Z,13.15
2019-06-11T03:49:24.457Z,13.19
2019-06-11T03:50:21.726Z,13.23
2019-06-11T03:51:23.294Z,13.22
2019-06-11T03:52:21.895Z,13.16
2019-06-11T03:53:22.774Z,13.26
2019-06-11T03:54:26.162Z,13.18
2019-06-11T03:55:20.494Z,13.07
2019-06-11T03:56:24.889Z,13.18
2019-06-11T03:57:20.160Z,13.19
2019-06-11T03:58:27.465Z,13.12
2019-06-11T03:59:21.893Z,13.10
2019-06-11T04:00:32.235Z,13.22
2019-06-11T04:01:25.884Z,13.30
2019-06-11T04:02:26.062Z,13.30
2019-06-11T04:03:20.424Z,13.36
2019-06-11T04:04:20.765Z,13.23
2019-06-11T04:05:20.469Z,13.23
2019-06-11T04:06:43.619Z,13.20
2019-06-11T04:07:29.429Z,13.19
2019-06-11T04:08:22.477Z,13.25
2019-06-11T04:09:20.272Z,13.25
2019-06-11T04:10:26.803Z,13.16
2019-06-11T04:11:21.730Z,13.22
2019-06-11T04:12:20.408Z,13.25
2019-06-11T04:13:20.513Z,13.22
2019-06-11T04:14:19.505Z,13.25
2019-06-11T04:15:20.437Z,13.35
2019-06-11T04:16:51.174Z,13.25
2019-06-11T04:17:37.195Z,13.18
2019-06-11T04:18:21.274Z,13.23
2019-06-11T04:19:23.468Z,13.22
2019-06-11T04:20:20.885Z,13.25
2019-06-11T04:21:23.118Z,13.16
2019-06-11T04:22:20.635Z,13.18
2019-06-11T04:23:21.376Z,13.18
2019-06-11T04:24:21.115Z,13.20
2019-06-11T04:25:21.401Z,13.22
2019-06-11T04:26:20.083Z,13.36
2019-06-11T04:27:24.434Z,13.33
2019-06-11T04:28:23.846Z,13.31
2019-06-11T04:29:20.383Z,13.35
2019-06-11T04:30:29.508Z,13.30
2019-06-11T04:31:20.485Z,13.27
2019-06-11T04:32:20.245Z,13.31
2019-06-11T04:33:21.012Z,13.36
2019-06-11T04:34:19.806Z,13.39
2019-06-11T04:35:22.256Z,13.39
2019-06-11T04:36:20.849Z,13.46
2019-06-11T04:37:37.361Z,13.39
2019-06-11T04:38:24.121Z,13.42
2019-06-11T04:39:19.984Z,13.45
2019-06-11T04:40:20.306Z,13.46
2019-06-11T04:41:19.456Z,13.45
2019-06-11T04:42:18.508Z,13.45
2019-06-11T04:43:19.531Z,13.44
2019-06-11T04:44:21.887Z,13.44
2019-06-11T04:45:19.517Z,13.45
2019-06-11T04:46:19.917Z,13.46
2019-06-11T04:47:18.533Z,13.46
2019-06-11T04:48:20.737Z,13.44
2019-06-11T04:49:20.013Z,13.45
2019-06-11T04:50:20.148Z,13.46
2019-06-11T04:51:19.949Z,13.49
2019-06-11T04:52:18.309Z,13.54
2019-06-11T04:53:23.187Z,13.61
2019-06-11T04:54:19.586Z,13.61
2019-06-11T04:55:20.143Z,13.57
2019-06-11T04:56:20.650Z,13.59
2019-06-11T04:57:19.501Z,13.61
2019-06-11T04:58:19.851Z,13.68
2019-06-11T04:59:20.021Z,13.56
2019-06-11T05:00:26.700Z,13.59
2019-06-11T05:05:19.819Z,13.59
2019-06-11T05:06:19.373Z,13.61
2019-06-11T05:07:40.200Z,13.54
2019-06-11T05:08:20.687Z,13.59
2019-06-11T05:09:19.056Z,13.66
2019-06-11T05:10:19.189Z,13.56
2019-06-11T05:11:21.334Z,13.64
2019-06-11T05:12:20.393Z,13.60
2019-06-11T05:13:18.956Z,13.61
2019-06-11T05:14:24.761Z,13.56
2019-06-11T05:15:18.651Z,13.61
2019-06-11T05:16:19.655Z,13.71
2019-06-11T05:17:19.302Z,13.72
2019-06-11T05:18:22.044Z,13.72
2019-06-11T05:19:19.410Z,13.71
2019-06-11T05:20:19.210Z,13.75
2019-06-11T05:21:19.192Z,13.78
2019-06-11T05:22:18.197Z,13.72
2019-06-11T05:23:18.988Z,13.74
2019-06-11T05:24:17.746Z,13.79
2019-06-11T05:25:17.814Z,13.72
2019-06-11T05:26:17.589Z,13.71
2019-06-11T05:27:17.311Z,13.72
2019-06-11T05:28:17.401Z,13.72
2019-06-11T05:29:17.439Z,13.75
2019-06-11T05:30:20.186Z,13.75
2019-06-11T05:31:17.798Z,13.74
2019-06-11T05:32:17.824Z,13.87
2019-06-11T05:33:17.841Z,13.75
2019-06-11T05:34:17.970Z,13.75
2019-06-11T05:35:18.533Z,13.89
2019-06-11T05:36:18.073Z,13.87
2019-06-11T05:37:18.179Z,13.93
2019-06-11T05:38:24.414Z,13.93
2019-06-11T05:39:19.070Z,13.99
2019-06-11T05:40:18.353Z,13.96
2019-06-11T05:41:18.640Z,13.99
2019-06-11T05:42:16.949Z,13.96
2019-06-11T05:43:16.936Z,13.96
2019-06-11T05:44:16.917Z,14.10
2019-06-11T05:45:16.899Z,14.10
2019-06-11T05:46:16.886Z,14.10
2019-06-11T05:47:16.868Z,14.10
2019-06-11T05:48:16.852Z,14.15
2019-06-11T05:49:16.836Z,14.15
2019-06-11T05:50:16.822Z,14.12
2019-06-11T05:51:16.810Z,14.32
2019-06-11T05:52:16.788Z,14.36
2019-06-11T05:53:16.773Z,14.35
2019-06-11T05:54:16.755Z,14.29
2019-06-11T05:55:16.741Z,14.32
2019-06-11T05:56:16.725Z,14.33
2019-06-11T05:57:16.714Z,14.39
2019-06-11T05:58:16.694Z,14.50
2019-06-11T05:59:16.676Z,14.45
2019-06-11T06:00:16.715Z,14.47
2019-06-11T06:01:29.995Z,14.57
2019-06-11T06:02:17.037Z,14.57
2019-06-11T06:03:16.612Z,14.55
2019-06-11T06:04:16.597Z,14.62
2019-06-11T06:05:16.580Z,14.73
2019-06-11T06:06:16.566Z,14.78
2019-06-11T06:07:16.553Z,14.72
2019-06-11T06:08:20.469Z,14.81
2019-06-11T06:09:16.520Z,14.92
2019-06-11T06:10:16.502Z,14.91
2019-06-11T06:11:16.487Z,14.91
2019-06-11T06:12:16.472Z,14.91
2019-06-11T06:13:16.460Z,14.88
2019-06-11T06:14:16.439Z,14.86
2019-06-11T06:15:16.426Z,14.95
2019-06-11T06:16:16.413Z,14.96
2019-06-11T06:17:16.395Z,15.06
2019-06-11T06:18:16.379Z,15.04
2019-06-11T06:19:16.365Z,15.19
2019-06-11T06:20:16.350Z,15.14
2019-06-11T06:21:16.333Z,15.29
2019-06-11T06:22:16.339Z,15.32
2019-06-11T06:23:16.306Z,15.43
2019-06-11T06:24:23.976Z,15.64
2019-06-11T06:25:16.273Z,15.69
2019-06-11T06:26:16.261Z,15.99
2019-06-11T06:27:16.248Z,16.10
2019-06-11T06:28:16.249Z,16.12
2019-06-11T06:29:16.256Z,16.15
2019-06-11T06:30:16.204Z,16.31
2019-06-11T06:31:16.209Z,16.50
2019-06-11T06:32:16.178Z,16.69
2019-06-11T06:33:16.163Z,16.86
2019-06-11T06:34:16.152Z,16.71
2019-06-11T06:35:16.143Z,16.83
2019-06-11T06:36:16.128Z,16.83
2019-06-11T06:37:16.110Z,17.04
2019-06-11T06:38:28.455Z,17.54
2019-06-11T06:39:16.089Z,17.64
2019-06-11T06:40:16.076Z,17.90
2019-06-11T06:41:16.063Z,18.11
2019-06-11T06:42:16.057Z,18.14
2019-06-11T06:43:16.043Z,18.00
2019-06-11T06:44:16.034Z,18.53
2019-06-11T06:45:16.026Z,19.31
2019-06-11T06:46:16.015Z,19.80
2019-06-11T06:47:16.007Z,20.28
2019-06-11T06:48:16.007Z,20.43
2019-06-11T06:49:15.992Z,20.35
2019-06-11T06:50:15.987Z,19.89
2019-06-11T06:51:15.978Z,19.49
2019-06-11T06:52:15.972Z,19.31
2019-06-11T06:53:15.964Z,19.39
2019-06-11T06:54:16.306Z,19.29
2019-06-11T06:55:15.946Z,19.51
2019-06-11T06:56:15.940Z,19.73
2019-06-11T06:57:15.935Z,19.92
2019-06-11T06:58:15.923Z,20.16
2019-06-11T06:59:15.918Z,20.36
2019-06-11T07:00:15.909Z,20.81
2019-06-11T07:01:18.906Z,20.90
2019-06-11T07:02:15.896Z,21.39
2019-06-11T07:03:15.894Z,21.67
2019-06-11T07:04:15.889Z,21.61
2019-06-11T07:05:15.886Z,21.82
2019-06-11T07:06:15.881Z,22.03
2019-06-11T07:07:15.877Z,21.93
2019-06-11T07:08:15.906Z,21.80
2019-06-11T07:09:15.866Z,21.98
2019-06-11T07:10:15.863Z,22.31
2019-06-11T07:11:15.862Z,22.46
2019-06-11T07:12:15.863Z,22.81
2019-06-11T07:13:18.200Z,22.79
2019-06-11T07:14:15.853Z,23.00
2019-06-11T07:15:15.850Z,23.20
2019-06-11T07:16:15.844Z,22.84
2019-06-11T07:17:15.841Z,22.81
2019-06-11T07:18:15.839Z,22.87
2019-06-11T07:19:15.834Z,22.60
2019-06-11T07:20:15.831Z,22.73
2019-06-11T07:21:15.827Z,23.21
2019-06-11T07:22:15.824Z,23.35
2019-06-11T07:23:15.822Z,23.50
2019-06-11T07:24:15.823Z,23.27
2019-06-11T07:25:15.818Z,23.13
2019-06-11T07:26:15.814Z,23.31
2019-06-11T07:27:15.811Z,23.50
2019-06-11T07:28:15.806Z,23.51
2019-06-11T07:29:15.802Z,23.79
2019-06-11T07:30:15.799Z,24.20
2019-06-11T07:31:15.801Z,24.32
2019-06-11T07:32:15.801Z,24.42
2019-06-11T07:33:15.792Z,24.53
2019-06-11T07:34:15.822Z,24.61
2019-06-11T07:35:15.786Z,24.21
2019-06-11T07:36:15.783Z,24.21
2019-06-11T07:37:15.784Z,24.45
2019-06-11T07:38:15.781Z,24.57
2019-06-11T07:39:23.320Z,24.70
2019-06-11T07:40:15.775Z,24.68
2019-06-11T07:41:15.770Z,24.32
2019-06-11T07:42:15.769Z,24.17
2019-06-11T07:43:15.765Z,24.21
2019-06-11T07:44:15.779Z,24.74
2019-06-11T07:45:15.762Z,25.16
2019-06-11T07:46:32.959Z,25.73
2019-06-11T07:47:15.815Z,26.12
2019-06-11T07:48:15.751Z,26.21
2019-06-11T07:49:15.747Z,25.90
2019-06-11T07:50:15.748Z,25.95
2019-06-11T07:51:15.744Z,25.95
2019-06-11T07:52:15.740Z,26.26
2019-06-11T07:53:15.738Z,26.41
2019-06-11T07:54:15.745Z,26.37
2019-06-11T07:55:15.735Z,26.34
2019-06-11T07:56:15.742Z,26.26
2019-06-11T07:57:15.729Z,26.40
2019-06-11T07:58:15.729Z,26.47
2019-06-11T07:59:15.727Z,26.41
2019-06-11T08:00:15.724Z,26.25
2019-06-11T08:01:15.794Z,26.03
2019-06-11T08:02:15.740Z,25.81
2019-06-11T08:03:16.368Z,25.46
2019-06-11T08:04:15.713Z,25.58
2019-06-11T08:05:15.711Z,25.75
2019-06-11T08:06:15.715Z,26.03
2019-06-11T08:07:15.708Z,26.21
2019-06-11T08:08:15.703Z,26.39
2019-06-11T08:09:40.893Z,26.21
2019-06-11T08:10:27.606Z,25.94
2019-06-11T08:11:15.694Z,25.32
2019-06-11T08:12:15.692Z,25.21
2019-06-11T08:13:15.690Z,25.28
2019-06-11T08:14:16.313Z,25.04
2019-06-11T08:15:15.683Z,24.95
2019-06-11T08:16:17.611Z,24.95
2019-06-11T08:17:15.678Z,24.70
2019-06-11T08:18:15.677Z,24.51
2019-06-11T08:19:16.909Z,24.69
2019-06-11T08:20:54.756Z,24.73
2019-06-11T08:21:35.170Z,24.70
2019-06-11T08:22:24.184Z,24.94
2019-06-11T08:23:15.715Z,25.01
2019-06-11T08:24:21.890Z,25.20
2019-06-11T08:25:17.282Z,25.68
2019-06-11T08:27:44.422Z,25.36
2019-06-11T08:28:15.959Z,25.24
2019-06-11T08:29:15.637Z,25.32
2019-06-11T08:30:15.635Z,25.02
2019-06-11T08:31:15.633Z,24.80
2019-06-11T08:32:15.631Z,24.74
2019-06-11T08:33:15.623Z,24.84
2019-06-11T08:34:15.626Z,24.86
2019-06-11T08:35:15.617Z,25.20
2019-06-11T08:36:15.612Z,25.44
2019-06-11T08:37:15.609Z,25.73
2019-06-11T08:38:15.605Z,26.47
2019-06-11T08:39:15.603Z,26.63
2019-06-11T08:40:22.614Z,26.69
2019-06-11T08:41:15.598Z,26.65
2019-06-11T08:42:15.595Z,26.51
2019-06-11T08:43:15.589Z,26.71
2019-06-11T08:44:15.585Z,26.46
2019-06-11T08:45:20.022Z,26.48
2019-06-11T08:46:15.577Z,26.41
2019-06-11T08:47:15.577Z,25.93
2019-06-11T08:48:15.573Z,25.65
2019-06-11T08:49:15.571Z,25.62
2019-06-11T08:50:15.569Z,25.43
2019-06-11T08:51:15.558Z,25.25
2019-06-11T08:52:15.567Z,25.16
2019-06-11T08:53:15.552Z,25.28
2019-06-11T08:54:15.546Z,25.56
2019-06-11T08:55:15.541Z,25.75
2019-06-11T08:56:15.542Z,25.47
2019-06-11T08:57:15.536Z,25.50
2019-06-11T08:58:15.531Z,25.84
2019-06-11T08:59:15.524Z,25.99
2019-06-11T09:00:33.947Z,26.16
2019-06-11T09:01:15.517Z,25.71
2019-06-11T09:02:15.511Z,25.58
2019-06-11T09:03:15.510Z,26.09
2019-06-11T09:04:15.509Z,26.73
2019-06-11T09:05:15.501Z,26.69
2019-06-11T09:06:15.502Z,26.47
2019-06-11T09:07:15.496Z,26.40
2019-06-11T09:08:15.491Z,26.26
2019-06-11T09:09:15.497Z,25.93
2019-06-11T09:10:28.368Z,25.78
2019-06-11T09:11:15.482Z,25.78
2019-06-11T09:12:15.480Z,25.80
2019-06-11T09:13:15.477Z,26.16
2019-06-11T09:14:15.475Z,26.84
2019-06-11T09:15:15.461Z,27.36
2019-06-11T09:16:15.462Z,27.63
2019-06-11T09:17:15.456Z,27.59
2019-06-11T09:18:15.451Z,27.68
2019-06-11T09:19:15.453Z,27.24
2019-06-11T09:20:15.445Z,26.98
2019-06-11T09:21:15.450Z,26.62
2019-06-11T09:22:15.448Z,26.02
2019-06-11T09:23:15.435Z,25.78
2019-06-11T09:24:15.434Z,26.03
2019-06-11T09:25:15.425Z,26.54
2019-06-11T09:26:15.422Z,26.69
2019-06-11T09:27:15.420Z,26.95
2019-06-11T09:28:15.417Z,27.42
2019-06-11T09:29:15.413Z,27.78
2019-06-11T09:30:15.411Z,27.76
2019-06-11T09:31:15.409Z,27.62
2019-06-11T09:32:15.412Z,27.21
2019-06-11T09:33:15.399Z,26.91
2019-06-11T09:34:15.404Z,25.95
2019-06-11T09:35:15.389Z,25.66
2019-06-11T09:36:15.387Z,25.48
2019-06-11T09:37:15.382Z,25.33
2019-06-11T09:38:15.377Z,25.26
2019-06-11T09:39:15.369Z,24.91
2019-06-11T09:40:15.364Z,24.45
2019-06-11T09:41:15.358Z,24.77
2019-06-11T09:42:15.353Z,25.31
2019-06-11T09:43:15.347Z,25.63
2019-06-11T09:44:15.426Z,25.95
2019-06-11T09:45:15.343Z,26.13
2019-06-11T09:46:15.335Z,26.29
2019-06-11T09:47:15.329Z,26.39
2019-06-11T09:48:15.335Z,26.66
2019-06-11T09:49:15.321Z,26.65
2019-06-11T09:50:15.320Z,26.50
2019-06-11T09:51:15.314Z,26.48
2019-06-11T09:52:15.313Z,26.29
2019-06-11T09:53:15.311Z,26.19
2019-06-11T09:54:15.303Z,26.26
2019-06-11T09:55:15.300Z,26.40
2019-06-11T09:56:15.298Z,26.54
2019-06-11T09:57:15.295Z,26.48
2019-06-11T09:58:15.290Z,26.69
2019-06-11T09:59:15.295Z,26.41
2019-06-11T10:00:15.286Z,25.95
2019-06-11T10:01:15.280Z,25.95
2019-06-11T10:02:15.277Z,26.13
2019-06-11T10:03:15.273Z,26.46
2019-06-11T10:04:15.267Z,26.29
2019-06-11T10:05:15.261Z,26.02
2019-06-11T10:06:15.258Z,25.95
2019-06-11T10:07:15.253Z,25.90
2019-06-11T10:08:15.255Z,25.93
2019-06-11T10:09:15.245Z,26.09
2019-06-11T10:10:15.240Z,25.98
2019-06-11T10:12:15.231Z,25.81
2019-06-11T10:13:15.226Z,25.63
2019-06-11T10:14:15.223Z,25.62
2019-06-11T10:15:15.220Z,25.56
2019-06-11T10:16:15.218Z,25.58
2019-06-11T10:17:15.210Z,25.80
2019-06-11T10:18:15.281Z,26.19
2019-06-11T10:19:15.202Z,26.24
2019-06-11T10:20:15.200Z,26.18
2019-06-11T10:21:15.201Z,26.16
2019-06-11T10:22:15.190Z,26.22
2019-06-11T10:23:15.188Z,26.26
2019-06-11T10:24:15.186Z,25.94
2019-06-11T10:25:15.179Z,25.44
2019-06-11T10:26:15.174Z,25.29
2019-06-11T10:27:15.172Z,25.44
2019-06-11T10:28:21.634Z,25.72
2019-06-11T10:29:15.162Z,25.87
2019-06-11T10:30:15.236Z,26.19
2019-06-11T10:31:15.151Z,26.22
2019-06-11T10:32:15.148Z,26.19
2019-06-11T10:33:15.143Z,26.36
2019-06-11T10:34:15.139Z,26.50
2019-06-11T10:35:15.147Z,26.32
2019-06-11T10:36:15.132Z,26.58
2019-06-11T10:37:15.128Z,26.73
2019-06-11T10:38:15.124Z,26.87
2019-06-11T10:39:15.123Z,26.85
2019-06-11T10:40:15.120Z,27.05
2019-06-11T10:41:15.120Z,26.73
2019-06-11T10:42:15.109Z,26.73
2019-06-11T10:43:15.106Z,27.02
2019-06-11T10:44:15.103Z,27.02
2019-06-11T10:45:15.101Z,27.02
2019-06-11T10:46:15.095Z,26.65
2019-06-11T10:47:15.093Z,26.63
2019-06-11T10:48:17.954Z,26.48
2019-06-11T10:49:15.090Z,26.92
2019-06-11T10:50:15.082Z,26.83
2019-06-11T10:51:15.078Z,26.62
2019-06-11T10:52:15.072Z,26.84
2019-06-11T10:53:15.068Z,26.88
2019-06-11T10:54:15.065Z,27.00
2019-06-11T10:55:15.063Z,27.30
2019-06-11T10:56:15.059Z,27.30
2019-06-11T10:57:15.057Z,27.45
2019-06-11T10:58:17.692Z,27.50
2019-06-11T10:59:15.046Z,27.88
2019-06-11T11:00:15.046Z,28.29
2019-06-11T11:01:15.044Z,28.29
2019-06-11T11:02:15.037Z,28.41
2019-06-11T11:03:15.032Z,28.48
2019-06-11T11:04:15.032Z,28.41
2019-06-11T11:05:15.030Z,28.73
2019-06-11T11:06:15.025Z,28.60
2019-06-11T11:07:15.023Z,28.55
2019-06-11T11:08:15.021Z,28.54
2019-06-11T11:09:15.018Z,28.40
2019-06-11T11:10:15.012Z,28.57
2019-06-11T11:11:15.014Z,28.48
2019-06-11T11:12:24.348Z,28.44
2019-06-11T11:13:15.005Z,28.29
2019-06-11T11:14:15.006Z,28.18
2019-06-11T11:15:14.998Z,27.63
2019-06-11T11:16:14.999Z,27.92
2019-06-11T11:17:14.991Z,28.04
2019-06-11T11:18:14.991Z,27.80
2019-06-11T11:19:14.984Z,27.80
2019-06-11T11:20:14.981Z,28.13
2019-06-11T11:21:14.980Z,28.45
2019-06-11T11:22:14.975Z,28.51
2019-06-11T11:23:14.971Z,28.54
2019-06-11T11:24:14.967Z,28.87
2019-06-11T11:25:14.966Z,28.92
2019-06-11T11:26:14.961Z,28.59
2019-06-11T11:27:14.957Z,28.51
2019-06-11T11:28:22.152Z,28.41
2019-06-11T11:29:14.951Z,28.32
2019-06-11T11:30:14.950Z,28.03
2019-06-11T11:31:14.947Z,28.08
2019-06-11T11:32:14.941Z,28.18
2019-06-11T11:33:14.938Z,28.44
2019-06-11T11:34:14.932Z,28.79
2019-06-11T11:35:14.929Z,28.73
2019-06-11T11:36:14.925Z,29.01
2019-06-11T11:37:15.286Z,29.13
2019-06-11T11:38:14.919Z,29.10
2019-06-11T11:39:14.915Z,29.19
2019-06-11T11:40:14.912Z,29.41
2019-06-11T11:41:14.908Z,29.54
2019-06-11T11:42:29.480Z,29.47
2019-06-11T11:43:14.902Z,29.05
2019-06-11T11:44:14.909Z,28.89
2019-06-11T11:45:14.896Z,28.82
2019-06-11T11:46:14.892Z,29.00
2019-06-11T11:47:14.891Z,29.05
2019-06-11T11:48:14.887Z,28.62
2019-06-11T11:49:14.884Z,28.92
2019-06-11T11:50:14.879Z,29.23
2019-06-11T11:51:14.883Z,29.35
2019-06-11T11:52:14.875Z,29.25
2019-06-11T11:53:14.906Z,29.39
2019-06-11T11:54:14.871Z,29.67
2019-06-11T11:55:14.869Z,29.96
2019-06-11T11:56:14.946Z,29.99
2019-06-11T11:57:14.865Z,29.96
2019-06-11T11:58:14.864Z,30.19
2019-06-11T11:59:14.854Z,30.35
2019-06-11T12:00:18.357Z,30.62
2019-06-11T12:01:14.847Z,30.86
2019-06-11T12:02:14.844Z,30.72
2019-06-11T12:03:14.852Z,30.69
2019-06-11T12:04:14.842Z,30.81
2019-06-11T12:05:14.835Z,31.08
2019-06-11T12:06:14.979Z,31.20
2019-06-11T12:07:14.831Z,30.97
2019-06-11T12:08:14.834Z,30.90
2019-06-11T12:09:14.826Z,31.10
2019-06-11T12:10:14.823Z,31.34
2019-06-11T12:11:17.341Z,31.43
2019-06-11T12:12:14.818Z,31.71
2019-06-11T12:13:14.815Z,31.54
2019-06-11T12:14:14.814Z,31.58
2019-06-11T12:15:14.813Z,31.68
2019-06-11T12:16:29.004Z,31.84
2019-06-11T12:17:14.807Z,31.93
2019-06-11T12:18:14.805Z,32.00
2019-06-11T12:19:18.672Z,32.14
2019-06-11T12:20:14.803Z,32.62
2019-06-11T12:25:30.811Z,32.06
2019-06-11T12:26:14.797Z,31.85
2019-06-11T12:27:14.791Z,31.42
2019-06-11T12:28:14.787Z,30.90
2019-06-11T12:29:14.783Z,30.69
2019-06-11T12:30:15.304Z,30.35
2019-06-11T12:31:14.782Z,30.28
2019-06-11T12:32:14.775Z,30.62
2019-06-11T12:33:14.775Z,30.87
2019-06-11T12:34:14.772Z,30.72
2019-06-11T12:35:14.770Z,30.93
2019-06-11T12:36:14.829Z,30.90
2019-06-11T12:37:14.762Z,31.08
2019-06-11T12:38:14.761Z,31.31
2019-06-11T12:39:14.764Z,31.43
2019-06-11T12:40:14.757Z,31.90
2019-06-11T12:41:14.754Z,32.10
2019-06-11T12:42:14.750Z,32.07
2019-06-11T12:43:32.096Z,32.36
2019-06-11T12:44:14.742Z,32.71
2019-06-11T12:45:14.743Z,32.83
2019-06-11T12:46:14.803Z,33.27
2019-06-11T12:47:14.740Z,33.55
2019-06-11T12:48:14.736Z,33.26
2019-06-11T12:49:14.734Z,32.67
2019-06-11T12:50:14.733Z,32.34
2019-06-11T12:51:18.018Z,32.06
2019-06-11T12:52:14.730Z,31.97
2019-06-11T12:53:14.725Z,32.03
2019-06-11T12:54:14.723Z,31.96
2019-06-11T12:55:14.723Z,31.74
2019-06-11T12:56:14.753Z,31.46
2019-06-11T12:57:14.722Z,31.36
2019-06-11T12:58:14.714Z,31.49
2019-06-11T12:59:14.712Z,31.15
2019-06-11T13:00:14.723Z,31.13
2019-06-11T13:01:14.707Z,31.15
2019-06-11T13:02:14.706Z,30.81
2019-06-11T13:03:18.350Z,30.22
2019-06-11T13:04:14.701Z,29.84
2019-06-11T13:05:14.693Z,29.37